createdAt,value
2018-04-23T00:00:08.332Z,75.56
2018-04-23T00:01:18.133Z,75.56
2018-04-23T00:02:28.222Z,75.46
2018-04-23T00:03:38.038Z,75.37
2018-04-23T00:04:48.133Z,75.46
2018-04-23T00:05:58.216Z,75.37
2018-04-23T00:07:08.045Z,75.17
2018-04-23T00:08:18.116Z,75.17
2018-04-23T00:09:28.288Z,75.56
2018-04-23T00:10:38.116Z,75.46
2018-04-23T00:11:47.677Z,75.17
2018-04-23T00:12:57.757Z,75.17
2018-04-23T00:14:07.309Z,75.37
2018-04-23T00:15:17.171Z,75.37
2018-04-23T00:16:27.255Z,75.46
2018-04-23T00:17:37.069Z,75.56
2018-04-23T00:18:47.146Z,75.56
2018-04-23T00:19:56.967Z,75.17
2018-04-23T00:21:07.146Z,75.17
2018-04-23T00:22:16.960Z,75.17
2018-04-23T00:23:26.773Z,75.17
2018-04-23T00:24:36.654Z,75.56
2018-04-23T00:25:46.738Z,75.71
2018-04-23T00:26:56.869Z,75.52
2018-04-23T00:28:06.966Z,75.42
2018-04-23T00:29:17.050Z,75.32
2018-04-23T00:30:27.138Z,75.71
2018-04-23T00:31:37.240Z,75.13
2018-04-23T00:32:47.379Z,75.42
2018-04-23T00:33:57.453Z,75.32
2018-04-23T00:35:07.276Z,75.32
2018-04-23T00:36:17.141Z,75.04
2018-04-23T00:37:27.249Z,75.52
2018-04-23T00:38:37.382Z,75.23
2018-04-23T00:39:47.195Z,75.62
2018-04-23T00:40:57.012Z,75.42
2018-04-23T00:42:07.109Z,75.32
2018-04-23T00:43:17.193Z,75.52
2018-04-23T00:44:27.324Z,75.52
2018-04-23T00:45:37.417Z,75.32
2018-04-23T00:46:47.245Z,75.13
2018-04-23T00:47:57.059Z,75.42
2018-04-23T00:49:07.137Z,75.29
2018-04-23T00:50:17.283Z,75.52
2018-04-23T00:51:27.359Z,75.71
2018-04-23T00:52:37.451Z,75.52
2018-04-23T00:53:47.530Z,75.32
2018-04-23T00:54:57.597Z,75.29
2018-04-23T00:56:07.151Z,75.1
2018-04-23T00:57:17.244Z,75.29
2018-04-23T00:58:27.050Z,75.1
2018-04-23T00:59:37.146Z,75.1
2018-04-23T01:00:47.226Z,75.1
2018-04-23T01:01:57.317Z,75.29
2018-04-23T01:03:07.399Z,75.38
2018-04-23T01:04:17.476Z,75.38
2018-04-23T01:05:27.319Z,75.29
2018-04-23T01:06:37.394Z,75.2
2018-04-23T01:07:47.513Z,75.1
2018-04-23T01:08:57.593Z,75.2
2018-04-23T01:10:07.419Z,75.38
2018-04-23T01:11:17.510Z,75.38
2018-04-23T01:12:27.571Z,75.2
2018-04-23T01:13:37.659Z,75.38
2018-04-23T01:14:47.727Z,75.2
2018-04-23T01:15:57.808Z,75.48
2018-04-23T01:17:07.870Z,75.29
2018-04-23T01:18:17.955Z,75.48
2018-04-23T01:19:28.032Z,75.2
2018-04-23T01:20:37.834Z,75.2
2018-04-23T01:21:47.662Z,75.48
2018-04-23T01:22:57.757Z,74.9
2018-04-23T01:24:07.840Z,75.48
2018-04-23T01:25:17.927Z,75.1
2018-04-23T01:26:28.011Z,75.48
2018-04-23T01:27:38.104Z,75.1
2018-04-23T01:28:48.190Z,75.48
2018-04-23T01:29:58.277Z,75.29
2018-04-23T01:31:08.116Z,75.2
2018-04-23T01:32:18.193Z,75.48
2018-04-23T01:33:28.283Z,75.1
2018-04-23T01:34:38.355Z,75.1
2018-04-23T01:35:48.424Z,75.29
2018-04-23T01:36:58.522Z,75.29
2018-04-23T01:38:08.331Z,75.29
2018-04-23T01:39:18.168Z,75.48
2018-04-23T01:40:28.281Z,75.38
2018-04-23T01:41:38.383Z,75.1
2018-04-23T01:42:48.543Z,75.1
2018-04-23T01:43:58.358Z,75.1
2018-04-23T01:45:08.427Z,75.29
2018-04-23T01:46:18.240Z,75.35
2018-04-23T01:47:28.337Z,75.38
2018-04-23T01:48:38.409Z,75.35
2018-04-23T01:49:48.490Z,75.29
2018-04-23T01:50:58.293Z,75.35
2018-04-23T01:52:08.389Z,75.35
2018-04-23T01:53:18.468Z,75.35
2018-04-23T01:54:28.554Z,75.35
2018-04-23T01:55:38.420Z,75.45
2018-04-23T01:56:48.493Z,75.45
2018-04-23T01:57:58.576Z,75.35
2018-04-23T01:59:08.698Z,75.25
2018-04-23T02:00:18.741Z,75.25
2018-04-23T02:01:28.859Z,75.25
2018-04-23T02:02:38.937Z,75.45
2018-04-23T02:03:49.079Z,75.06
2018-04-23T02:04:58.889Z,75.06
2018-04-23T02:06:08.724Z,75.15
2018-04-23T02:07:18.812Z,75.15
2018-04-23T02:08:28.885Z,75.45
2018-04-23T02:09:38.709Z,75.06
2018-04-23T02:10:48.521Z,75.25
2018-04-23T02:11:58.652Z,75.15
2018-04-23T02:13:08.724Z,75.15
2018-04-23T02:14:18.827Z,75.54
2018-04-23T02:15:28.654Z,75.25
2018-04-23T02:16:38.724Z,75.25
2018-04-23T02:17:48.850Z,75.35
2018-04-23T02:18:58.948Z,75.06
2018-04-23T02:20:09.030Z,75.25
2018-04-23T02:21:18.584Z,75.06
2018-04-23T02:22:28.707Z,75.25
2018-04-23T02:23:38.770Z,75.25
2018-04-23T02:24:48.595Z,75.25
2018-04-23T02:25:58.688Z,75.15
2018-04-23T02:27:08.503Z,75.15
2018-04-23T02:28:18.568Z,75.25
2018-04-23T02:29:28.382Z,74.96
2018-04-23T02:30:38.559Z,75.35
2018-04-23T02:31:48.642Z,75.25
2018-04-23T02:32:58.739Z,75.45
2018-04-23T02:34:08.818Z,75.25
2018-04-23T02:35:18.957Z,75.06
2018-04-23T02:36:28.787Z,74.87
2018-04-23T02:37:38.886Z,75.25
2018-04-23T02:38:48.963Z,75.45
2018-04-23T02:39:58.776Z,75.12
2018-04-23T02:41:08.927Z,75.15
2018-04-23T02:42:19.005Z,75.45
2018-04-23T02:43:29.067Z,75.31
2018-04-23T02:44:39.157Z,75.21
2018-04-23T02:45:49.244Z,75.12
2018-04-23T02:46:59.064Z,75.21
2018-04-23T02:48:09.152Z,75.12
2018-04-23T02:49:19.229Z,75.12
2018-04-23T02:50:29.308Z,75.31
2018-04-23T02:51:39.371Z,75.4
2018-04-23T02:52:49.468Z,75.5
2018-04-23T02:53:59.279Z,75.31
2018-04-23T02:55:09.363Z,75.02
2018-04-23T02:56:19.192Z,75.12
2018-04-23T02:57:29.269Z,75.31
2018-04-23T02:58:39.355Z,75.31
2018-04-23T02:59:49.442Z,75.31
2018-04-23T03:00:59.538Z,75.12
2018-04-23T03:02:09.670Z,75.21
2018-04-23T03:34:04.070Z,72.08
2018-04-23T03:35:13.862Z,72.56
2018-04-23T03:36:23.928Z,73.43
2018-04-23T03:37:34.001Z,74.38
2018-04-23T03:38:44.095Z,74.48
2018-04-23T03:39:53.913Z,74.95
2018-04-23T03:41:03.723Z,75.14
2018-04-23T03:42:13.567Z,75.81
2018-04-23T03:43:23.642Z,75.76
2018-04-23T03:44:33.179Z,75.66
2018-04-23T03:45:43.316Z,75.47
2018-04-23T03:46:53.397Z,75.66
2018-04-23T03:48:03.469Z,75.51
2018-04-23T03:49:13.285Z,75.7
2018-04-23T03:50:23.365Z,75.41
2018-04-23T03:51:33.568Z,75.45
2018-04-23T03:52:43.382Z,75.35
2018-04-23T03:53:53.446Z,75.07
2018-04-23T03:55:03.258Z,75.26
2018-04-23T03:56:13.063Z,75.39
2018-04-23T03:57:23.142Z,75.1
2018-04-23T03:58:33.229Z,75.01
2018-04-23T03:59:43.299Z,75.01
2018-04-23T04:00:53.125Z,75.01
2018-04-23T04:02:02.939Z,75.52
2018-04-23T04:03:13.040Z,74.66
2018-04-23T04:04:23.115Z,74.76
2018-04-23T04:05:33.226Z,74.57
2018-04-23T04:06:43.289Z,74.27
2018-04-23T04:07:53.349Z,74.41
2018-04-23T04:09:02.639Z,74.41
2018-04-23T04:10:12.752Z,74.41
2018-04-23T04:11:22.583Z,74.79
2018-04-23T04:12:32.678Z,74.69
2018-04-23T04:13:42.762Z,74.51
2018-04-23T04:14:52.849Z,74.79
2018-04-23T04:16:02.941Z,74.35
2018-04-23T04:17:13.027Z,74.26
2018-04-23T04:18:22.845Z,74.54
2018-04-23T04:19:32.667Z,74.16
2018-04-23T04:20:42.748Z,74.35
2018-04-23T04:21:52.818Z,73.97
2018-04-23T04:23:02.910Z,74.19
2018-04-23T04:24:13.034Z,74.19
2018-04-23T04:25:23.111Z,74.01
2018-04-23T04:26:33.269Z,73.52
2018-04-23T04:27:43.337Z,73.43
2018-04-23T04:28:53.414Z,73.75
2018-04-23T04:30:02.993Z,73.46
2018-04-23T04:31:13.093Z,73.66
2018-04-23T04:32:23.179Z,72.92
2018-04-23T04:33:33.288Z,72.29
2018-04-23T04:34:43.111Z,72.03
2018-04-23T04:35:52.935Z,72.23
2018-04-23T04:37:03.033Z,72.03
2018-04-23T04:38:12.846Z,72.17
2018-04-23T04:39:22.883Z,72.45
2018-04-23T04:40:32.974Z,73.03
2018-04-23T04:41:42.519Z,72.94
2018-04-23T04:42:52.607Z,72.36
2018-04-23T04:44:02.522Z,72.68
2018-04-23T04:45:12.609Z,73.07
2018-04-23T04:46:22.692Z,73.65
2018-04-23T04:47:32.771Z,73.42
2018-04-23T04:48:42.321Z,73.51
2018-04-23T04:49:52.442Z,74.19
2018-04-23T04:51:02.539Z,74.29
2018-04-23T04:52:12.369Z,74.29
2018-04-23T04:53:22.450Z,74.29
2018-04-23T04:54:32.528Z,74.76
2018-04-23T04:55:42.338Z,74.67
2018-04-23T04:56:52.431Z,74.48
2018-04-23T04:58:02.265Z,74.76
2018-04-23T04:59:12.092Z,74.29
2018-04-23T05:00:22.187Z,74.67
2018-04-23T05:01:32.022Z,74.86
2018-04-23T05:02:41.852Z,74.57
2018-04-23T05:03:51.683Z,74.57
2018-04-23T05:05:01.763Z,74.76
2018-04-23T05:06:11.601Z,74.67
2018-04-23T05:07:21.491Z,74.19
2018-04-23T05:08:31.572Z,74.19
2018-04-23T05:09:41.398Z,74.13
2018-04-23T05:10:51.459Z,73.1
2018-04-23T05:12:01.539Z,72.37
2018-04-23T05:13:11.404Z,72.02
2018-04-23T05:14:21.206Z,71.58
2018-04-23T05:15:31.350Z,72.28
2018-04-23T05:16:41.452Z,72.19
2018-04-23T05:17:51.553Z,72.38
2018-04-23T05:19:01.684Z,71.9
2018-04-23T05:20:11.507Z,71.06
2018-04-23T05:21:21.358Z,71.39
2018-04-23T05:22:31.448Z,71.04
2018-04-23T05:23:41.317Z,71.04
2018-04-23T05:24:51.716Z,70.88
2018-04-23T05:26:01.799Z,71.94
2018-04-23T05:27:11.885Z,72.78
2018-04-23T05:28:21.983Z,72.97
2018-04-23T05:29:32.089Z,73.42
2018-04-23T05:30:41.910Z,73.42
2018-04-23T05:31:52.013Z,73.96
2018-04-23T05:33:02.097Z,73.86
2018-04-23T05:34:12.179Z,74.64
2018-04-23T05:35:22.025Z,74.54
2018-04-23T05:36:31.908Z,74.6
2018-04-23T05:37:42.041Z,74.6
2018-04-23T05:38:52.147Z,74.51
2018-04-23T05:40:01.997Z,74.6
2018-04-23T05:41:11.550Z,73.93
2018-04-23T05:42:21.633Z,73.93
2018-04-23T05:43:31.713Z,74.12
2018-04-23T05:44:41.808Z,74.02
2018-04-23T05:45:51.899Z,73.83
2018-04-23T05:47:01.987Z,73.93
2018-04-23T05:48:12.069Z,74.21
2018-04-23T05:49:22.155Z,74.02
2018-04-23T05:50:32.229Z,73.35
2018-04-23T05:51:42.307Z,73.63
2018-04-23T05:52:52.397Z,73.38
2018-04-23T05:54:02.499Z,73.25
2018-04-23T05:55:12.061Z,73.96
2018-04-23T05:56:22.146Z,73.67
2018-04-23T05:57:32.230Z,73.77
2018-04-23T05:58:42.315Z,73.48
2018-04-23T05:59:51.877Z,73.58
2018-04-23T06:01:01.979Z,73.58
2018-04-23T06:02:12.062Z,74.06
2018-04-23T06:03:22.158Z,73.96
2018-04-23T06:04:32.230Z,73.71
2018-04-23T06:05:42.305Z,73.86
2018-04-23T06:06:52.126Z,74.44
2018-04-23T06:08:01.960Z,74.89
2018-04-23T06:09:12.052Z,74.89
2018-04-23T06:10:22.133Z,75.18
2018-04-23T06:11:32.316Z,75.09
2018-04-23T06:12:42.405Z,74.95
2018-04-23T06:13:52.222Z,75.05
2018-04-23T06:15:02.043Z,75.34
2018-04-23T06:16:11.864Z,75.88
2018-04-23T06:17:21.736Z,75.78
2018-04-23T06:18:31.839Z,75.49
2018-04-23T06:19:41.981Z,75.55
2018-04-23T06:20:51.544Z,75.55
2018-04-23T06:22:01.628Z,76.03
2018-04-23T06:23:11.452Z,75.55
2018-04-23T06:24:21.267Z,75.55
2018-04-23T06:25:31.364Z,76.03
2018-04-23T06:26:41.451Z,75.84
2018-04-23T06:27:51.282Z,76.38
2018-04-23T06:29:01.140Z,75.8
2018-04-23T06:30:11.237Z,76.28
2018-04-23T06:31:21.347Z,76.18
2018-04-23T06:32:31.454Z,76.25
2018-04-23T06:33:41.269Z,76.44
2018-04-23T06:34:51.462Z,77.08
2018-04-23T06:36:01.549Z,77.46
2018-04-23T06:37:11.651Z,77.36
2018-04-23T06:38:21.746Z,76.84
2018-04-23T06:39:31.825Z,76.65
2018-04-23T06:40:41.897Z,76.26
2018-04-23T06:41:51.978Z,76.65
2018-04-23T06:43:01.802Z,76.84
2018-04-23T06:44:11.597Z,76.11
2018-04-23T06:45:21.418Z,76.11
2018-04-23T06:46:31.516Z,75.92
2018-04-23T06:47:41.624Z,75.92
2018-04-23T06:48:51.708Z,75.63
2018-04-23T06:50:01.525Z,75.63
2018-04-23T06:51:11.627Z,75.24
2018-04-23T06:52:21.491Z,75.34
2018-04-23T06:53:31.582Z,74.86
2018-04-23T06:54:41.701Z,74.86
2018-04-23T06:55:51.525Z,74.8
2018-04-23T06:57:01.349Z,74.9
2018-04-23T06:58:11.215Z,74.9
2018-04-23T06:59:21.311Z,74.61
2018-04-23T07:00:31.393Z,74.74
2018-04-23T07:01:41.507Z,74.16
2018-04-23T07:02:51.691Z,74.16
2018-04-23T07:04:01.771Z,74.26
2018-04-23T07:05:11.372Z,73.78
2018-04-23T07:06:21.456Z,73.68
2018-04-23T07:07:31.542Z,73.82
2018-04-23T07:08:41.397Z,73.91
2018-04-23T07:09:51.281Z,73.14
2018-04-23T07:11:01.372Z,73.53
2018-04-23T07:12:11.190Z,73.85
2018-04-23T07:13:21.289Z,74.05
2018-04-23T07:14:31.397Z,73.18
2018-04-23T07:15:41.517Z,73.41
2018-04-23T07:16:51.338Z,72.96
2018-04-23T07:18:00.883Z,72.77
2018-04-23T07:19:10.714Z,72.13
2018-04-23T07:20:20.789Z,71.97
2018-04-23T07:21:30.931Z,71.88
2018-04-23T07:22:41.025Z,72.2
2018-04-23T07:23:51.116Z,72.2
2018-04-23T07:25:01.217Z,71.94
2018-04-23T07:26:11.304Z,71.69
2018-04-23T07:27:21.398Z,71.78
2018-04-23T07:28:31.496Z,71.98
2018-04-23T07:29:41.578Z,71.82
2018-04-23T07:30:51.650Z,71.34
2018-04-23T07:32:01.758Z,71.37
2018-04-23T07:33:11.988Z,71.28
2018-04-23T07:34:22.095Z,71.37
2018-04-23T07:35:32.210Z,71.41
2018-04-23T07:36:42.293Z,71.54
2018-04-23T07:37:52.394Z,72.12
2018-04-23T07:39:02.493Z,72.02
2018-04-23T07:40:12.669Z,72.51
2018-04-23T07:41:22.772Z,72.71
2018-04-23T07:42:32.866Z,72.8
2018-04-23T07:43:42.956Z,72.89
2018-04-23T07:44:52.527Z,73.09
2018-04-23T07:46:02.612Z,72.99
2018-04-23T07:47:12.451Z,73.19
2018-04-23T07:48:22.561Z,73.09
2018-04-23T07:49:32.661Z,73.19
2018-04-23T07:50:42.789Z,72.89
2018-04-23T07:51:52.627Z,72.51
2018-04-23T07:53:02.467Z,72.06
2018-04-23T07:54:12.712Z,72.25
2018-04-23T07:55:22.633Z,72.74
2018-04-23T07:56:32.817Z,72.45
2018-04-23T07:57:42.905Z,72.19
2018-04-23T07:58:53.091Z,72.39
2018-04-23T08:00:03.011Z,72.09
2018-04-23T08:01:12.914Z,72.13
2018-04-23T08:02:23.032Z,71.2
2018-04-23T08:03:33.129Z,71.39
2018-04-23T08:04:42.954Z,71.81
2018-04-23T08:05:53.339Z,71.42
2018-04-23T08:07:04.020Z,71.46
2018-04-23T08:08:14.253Z,71.75
2018-04-23T08:09:24.422Z,71.75
2018-04-23T08:10:34.823Z,71.88
2018-04-23T08:11:45.738Z,71.78
2018-04-23T08:12:55.586Z,71.62
2018-04-23T08:14:05.742Z,71.82
2018-04-23T08:15:15.861Z,71.33
2018-04-23T08:16:25.969Z,71.66
2018-04-23T08:17:36.104Z,71.86
2018-04-23T08:18:46.207Z,71.86
2018-04-23T08:19:56.362Z,71.66
2018-04-23T08:21:06.439Z,71.56
2018-04-23T08:22:16.557Z,71.8
2018-04-23T08:23:26.654Z,72.28
2018-04-23T08:24:36.540Z,72.38
2018-04-23T08:25:46.696Z,72.28
2018-04-23T08:26:56.548Z,72.19
2018-04-23T08:28:06.405Z,72.77
2018-04-23T08:29:16.522Z,72.38
2018-04-23T08:30:26.628Z,72.77
2018-04-23T08:31:36.736Z,72.77
2018-04-23T08:32:46.844Z,72.51
2018-04-23T08:33:56.950Z,72.41
2018-04-23T08:35:07.062Z,72.61
2018-04-23T08:36:17.161Z,72.9
2018-04-23T08:37:27.358Z,72.9
2018-04-23T08:38:37.677Z,72.9
2018-04-23T08:39:47.766Z,73
2018-04-23T08:40:57.881Z,73.39
2018-04-23T08:42:07.995Z,73.58
2018-04-23T08:43:18.119Z,73.49
2018-04-23T08:44:28.217Z,73.29
2018-04-23T08:45:38.333Z,73.29
2018-04-23T08:47:03.067Z,73.19
2018-04-23T08:48:13.318Z,73.23
2018-04-23T08:49:23.450Z,73.33
2018-04-23T08:50:33.650Z,73.62
2018-04-23T08:51:43.760Z,73.72
2018-04-23T08:52:53.857Z,73.72
2018-04-23T08:54:03.962Z,73.72
2018-04-23T08:55:14.083Z,73.72
2018-04-23T08:56:24.195Z,73.62
2018-04-23T08:57:34.019Z,73.82
2018-04-23T08:58:44.179Z,73.82
2018-04-23T08:59:54.296Z,73.62
2018-04-23T09:01:04.274Z,73.66
2018-04-23T09:02:14.370Z,73.52
2018-04-23T09:03:24.685Z,73.56
2018-04-23T09:04:35.042Z,74.05
2018-04-23T09:05:45.169Z,73.46
2018-04-23T09:06:55.270Z,73.66
2018-04-23T09:08:05.126Z,73.69
2018-04-23T09:09:14.979Z,73.66
2018-04-23T09:10:24.816Z,73.89
2018-04-23T09:11:34.668Z,73.99
2018-04-23T09:12:44.763Z,73.4
2018-04-23T09:13:54.864Z,74.08
2018-04-23T09:15:04.688Z,73.89
2018-04-23T09:16:14.875Z,73.79
2018-04-23T09:17:25.012Z,73.6
2018-04-23T09:18:35.112Z,73.79
2018-04-23T09:19:45.215Z,73.6
2018-04-23T09:20:55.058Z,73.73
2018-04-23T09:22:05.163Z,73.83
2018-04-23T09:23:15.276Z,73.63
2018-04-23T09:24:25.368Z,73.63
2018-04-23T09:25:35.465Z,73.73
2018-04-23T09:26:45.012Z,73.83
2018-04-23T09:27:55.103Z,74.02
2018-04-23T09:29:05.178Z,73.34
2018-04-23T09:30:15.273Z,73.14
2018-04-23T09:31:25.385Z,73.76
2018-04-23T09:32:35.517Z,73.37
2018-04-23T09:33:45.623Z,73.24
2018-04-23T09:34:55.457Z,73.66
2018-04-23T09:36:05.616Z,73.08
2018-04-23T09:37:15.455Z,72.59
2018-04-23T09:38:25.289Z,72.88
2018-04-23T09:39:35.187Z,73.11
2018-04-23T09:40:45.305Z,72.63
2018-04-23T09:41:56.093Z,72.96
2018-04-23T09:43:06.195Z,72.56
2018-04-23T09:44:16.298Z,72.99
2018-04-23T09:45:26.621Z,72.6
2018-04-23T09:46:36.725Z,72.8
2018-04-23T09:47:46.862Z,72.31
2018-04-23T09:48:56.724Z,72.53
2018-04-23T09:50:06.884Z,72.34
2018-04-23T09:51:17.146Z,72.83
2018-04-23T09:52:26.987Z,72.67
2018-04-23T09:53:36.811Z,73.03
2018-04-23T09:54:46.892Z,72.74
2018-04-23T09:55:57.194Z,72.77
2018-04-23T09:57:06.812Z,72.67
2018-04-23T09:58:16.935Z,72.77
2018-04-23T09:59:27.035Z,72.86
2018-04-23T10:00:37.133Z,72.86
2018-04-23T10:01:47.240Z,72.77
2018-04-23T10:02:57.358Z,72.31
2018-04-23T10:04:07.208Z,72.12
2018-04-23T10:05:17.325Z,71.95
2018-04-23T10:06:27.163Z,72.25
2018-04-23T10:07:37.252Z,72.35
2018-04-23T10:08:47.658Z,72.45
2018-04-23T10:09:57.516Z,71.95
2018-04-23T10:11:07.356Z,71.99
2018-04-23T10:12:17.559Z,72.19
2018-04-23T10:13:27.150Z,72.48
2018-04-23T10:14:37.327Z,72.38
2018-04-23T10:15:47.427Z,72.38
2018-04-23T10:16:56.998Z,71.99
2018-04-23T10:18:07.097Z,72.28
2018-04-23T10:19:17.175Z,72.88
2018-04-23T10:20:27.275Z,72.68
2018-04-23T10:21:37.347Z,72.78
2018-04-23T10:22:47.456Z,72.78
2018-04-23T10:23:57.560Z,72.97
2018-04-23T10:25:07.664Z,72.88
2018-04-23T10:26:17.816Z,72.32
2018-04-23T10:27:27.655Z,72.91
2018-04-23T10:28:37.751Z,72.52
2018-04-23T10:29:47.849Z,73.27
2018-04-23T10:30:57.951Z,72.91
2018-04-23T10:32:07.911Z,73.01
2018-04-23T10:33:18.248Z,72.71
2018-04-23T10:34:28.349Z,73.01
2018-04-23T10:35:38.706Z,73.17
2018-04-23T10:36:48.289Z,72.81
2018-04-23T10:37:58.127Z,72.61
2018-04-23T10:39:07.967Z,72.91
2018-04-23T10:40:18.063Z,72.81
2018-04-23T10:41:28.164Z,72.71
2018-04-23T10:42:38.305Z,72.52
2018-04-23T10:43:48.413Z,73.01
2018-04-23T10:44:58.008Z,73.01
2018-04-23T10:46:08.352Z,73.01
2018-04-23T10:47:18.460Z,72.71
2018-04-23T10:48:28.705Z,73.01
2018-04-23T10:49:38.796Z,72.71
2018-04-23T10:50:48.904Z,73.01
2018-04-23T10:51:58.995Z,72.22
2018-04-23T10:53:09.118Z,72.03
2018-04-23T10:54:19.280Z,72.22
2018-04-23T10:55:29.369Z,72.13
2018-04-23T10:56:39.487Z,72.22
2018-04-23T10:57:49.574Z,72.03
2018-04-23T10:58:59.405Z,72.32
2018-04-23T11:00:09.593Z,72.32
2018-04-23T11:01:19.438Z,72.42
2018-04-23T11:02:29.545Z,72.42
2018-04-23T11:03:39.669Z,72.16
2018-04-23T11:04:49.763Z,72.52
2018-04-23T11:05:59.882Z,72.16
2018-04-23T11:07:09.997Z,72.26
2018-04-23T11:08:20.093Z,72.55
2018-04-23T11:09:29.933Z,71.77
2018-04-23T11:10:40.095Z,71.51
2018-04-23T11:11:50.290Z,71.51
2018-04-23T11:13:00.390Z,70.86
2018-04-23T11:14:10.512Z,70.89
2018-04-23T11:15:20.357Z,71.09
2018-04-23T11:16:29.951Z,71.12
2018-04-23T11:17:40.046Z,70.33
2018-04-23T11:18:49.621Z,70.37
2018-04-23T11:19:59.722Z,70.4
2018-04-23T11:21:09.813Z,70.5
2018-04-23T11:22:19.914Z,70.7
2018-04-23T11:23:29.839Z,70.6
2018-04-23T11:24:39.930Z,70.5
2018-04-23T11:25:50.136Z,70.4
2018-04-23T11:27:00.255Z,70.4
2018-04-23T11:28:10.360Z,70.3
2018-04-23T11:29:20.527Z,71.19
2018-04-23T11:30:30.640Z,71.19
2018-04-23T11:31:40.753Z,70.99
2018-04-23T11:32:50.860Z,70.96
2018-04-23T11:34:00.961Z,70.96
2018-04-23T11:35:11.204Z,70.96
2018-04-23T11:36:21.037Z,71.06
2018-04-23T11:37:31.137Z,71.35
2018-04-23T11:38:41.214Z,71.15
2018-04-23T11:39:51.505Z,71.48
2018-04-23T11:41:01.687Z,71.19
2018-04-23T11:42:11.519Z,71.19
2018-04-23T11:43:21.374Z,71.09
2018-04-23T11:44:31.226Z,71.39
2018-04-23T11:45:41.298Z,70.99
2018-04-23T11:46:51.454Z,71.09
2018-04-23T11:48:01.544Z,70.99
2018-04-23T11:49:11.661Z,71.19
2018-04-23T11:50:21.516Z,71.65
2018-04-23T11:51:31.628Z,71.88
2018-04-23T11:52:41.504Z,71.39
2018-04-23T11:53:51.603Z,71.58
2018-04-23T11:55:01.185Z,71.39
2018-04-23T11:56:11.272Z,71.58
2018-04-23T11:57:21.378Z,71.88
2018-04-23T11:58:31.512Z,71.84
2018-04-23T11:59:41.366Z,71.75
2018-04-23T12:00:50.944Z,71.75
2018-04-23T12:02:01.289Z,71.65
2018-04-23T12:03:11.413Z,71.75
2018-04-23T12:04:21.344Z,71.55
2018-04-23T12:05:31.478Z,70.7
2018-04-23T12:06:41.574Z,71.09
2018-04-23T12:07:51.681Z,71.39
2018-04-23T12:09:01.547Z,71.22
2018-04-23T12:10:11.439Z,71.42
2018-04-23T12:11:21.550Z,71.03
2018-04-23T12:12:31.390Z,71.12
2018-04-23T12:13:41.510Z,70.79
2018-04-23T12:14:51.630Z,71.03
2018-04-23T12:16:01.991Z,71.19
2018-04-23T12:17:12.217Z,71.19
2018-04-23T12:18:22.315Z,71.68
2018-04-23T12:19:32.156Z,71.39
2018-04-23T12:20:41.979Z,71.72
2018-04-23T12:21:52.077Z,71.62
2018-04-23T12:23:02.195Z,71.42
2018-04-23T12:24:12.054Z,71.58
2018-04-23T12:25:21.900Z,71.68
2018-04-23T12:26:31.999Z,72.17
2018-04-23T12:27:42.038Z,71.84
2018-04-23T12:28:51.611Z,71.45
2018-04-23T12:30:01.718Z,71.75
2018-04-23T12:31:11.820Z,71.45
2018-04-23T12:32:22.016Z,72.4
2018-04-23T12:33:32.125Z,73.09
2018-04-23T12:34:41.961Z,72.66
2018-04-23T12:35:52.078Z,72.07
2018-04-23T12:37:02.179Z,72.46
2018-04-23T12:38:12.018Z,71.67
2018-04-23T12:39:22.384Z,71.71
2018-04-23T12:40:32.469Z,71.65
2018-04-23T12:41:42.574Z,71.55
2018-04-23T12:42:52.673Z,71.12
2018-04-23T12:44:02.829Z,71.61
2018-04-23T12:45:12.997Z,72.1
2018-04-23T12:46:23.105Z,72.07
2018-04-23T12:47:33.212Z,71.97
2018-04-23T12:48:43.041Z,71.67
2018-04-23T12:49:52.882Z,72.4
2018-04-23T12:51:03.162Z,71.67
2018-04-23T12:52:13.383Z,71.87
2018-04-23T12:53:23.753Z,71.61
2018-04-23T12:54:33.850Z,71.65
2018-04-23T12:55:43.957Z,71.25
2018-04-23T12:56:54.100Z,71.55
2018-04-23T12:58:04.222Z,72.14
2018-04-23T12:59:14.539Z,71.61
2018-04-23T13:00:24.859Z,72.3
2018-04-23T13:01:34.999Z,72.36
2018-04-23T13:02:45.175Z,72.66
2018-04-23T13:03:55.021Z,72.27
2018-04-23T13:05:05.123Z,72.17
2018-04-23T13:06:15.391Z,71.58
2018-04-23T13:07:25.231Z,71.87
2018-04-23T13:08:35.394Z,71.97
2018-04-23T13:09:45.491Z,71.81
2018-04-23T13:10:55.321Z,71.91
2018-04-23T13:12:05.424Z,71.61
2018-04-23T13:13:16.062Z,71.91
2018-04-23T13:14:26.166Z,71.71
2018-04-23T13:15:36.284Z,72
2018-04-23T13:16:46.380Z,71.67
2018-04-23T13:17:56.484Z,71.58
2018-04-23T13:19:06.360Z,71.87
2018-04-23T13:20:16.237Z,72.36
2018-04-23T13:21:26.339Z,72.17
2018-04-23T13:22:36.501Z,72.66
2018-04-23T13:23:46.612Z,72.27
2018-04-23T13:24:56.830Z,72.13
2018-04-23T13:26:06.717Z,72.33
2018-04-23T13:27:16.544Z,72.82
2018-04-23T13:28:26.663Z,72.09
2018-04-23T13:29:36.527Z,71.54
2018-04-23T13:30:46.630Z,71.28
2018-04-23T13:31:56.758Z,71.12
2018-04-23T13:33:06.585Z,70.83
2018-04-23T13:34:16.686Z,70.47
2018-04-23T13:35:26.798Z,70.17
2018-04-23T13:36:36.635Z,70.37
2018-04-23T13:37:46.647Z,70.4
2018-04-23T13:38:56.984Z,70.3
2018-04-23T13:40:06.833Z,70.96
2018-04-23T13:41:16.958Z,71.15
2018-04-23T13:42:27.144Z,70.92
2018-04-23T13:43:37.603Z,71.61
2018-04-23T13:44:47.571Z,71.61
2018-04-23T13:45:57.666Z,71.71
2018-04-23T13:47:07.517Z,71.81
2018-04-23T13:48:17.632Z,71.48
2018-04-23T13:49:27.729Z,71.58
2018-04-23T13:50:38.096Z,71.67
2018-04-23T13:51:47.939Z,72.46
2018-04-23T13:52:58.811Z,72.17
2018-04-23T13:54:10.717Z,72.27
2018-04-23T13:55:21.952Z,72.56
2018-04-23T13:56:32.991Z,72.66
2018-04-23T13:57:44.188Z,72.66
2018-04-23T13:58:54.297Z,72.66
2018-04-23T14:00:04.138Z,72.66
2018-04-23T14:01:14.304Z,72.17
2018-04-23T14:02:24.400Z,72.07
2018-04-23T14:03:34.765Z,72.23
2018-04-23T14:04:44.848Z,72.36
2018-04-23T14:05:54.906Z,72.03
2018-04-23T14:07:05.377Z,72.33
2018-04-23T14:08:15.476Z,72.33
2018-04-23T14:09:25.322Z,71.84
2018-04-23T14:10:35.418Z,73.11
2018-04-23T14:11:44.986Z,72.92
2018-04-23T14:12:55.138Z,72.78
2018-04-23T14:14:04.965Z,72.88
2018-04-23T14:15:14.814Z,72.88
2018-04-23T14:16:24.659Z,72.78
2018-04-23T14:17:34.778Z,73.02
2018-04-23T14:18:45.121Z,72.59
2018-04-23T14:19:55.256Z,72.78
2018-04-23T14:21:05.366Z,72.78
2018-04-23T14:22:15.480Z,73.08
2018-04-23T14:23:25.626Z,72.69
2018-04-23T14:24:35.788Z,72.88
2018-04-23T14:25:45.625Z,72.78
2018-04-23T14:26:55.760Z,72.88
2018-04-23T14:28:05.860Z,72.85
2018-04-23T14:29:15.989Z,72.88
2018-04-23T14:30:26.145Z,73.04
2018-04-23T14:31:36.509Z,72.75
2018-04-23T14:32:46.610Z,72.65
2018-04-23T14:33:56.723Z,73.34
2018-04-23T14:35:06.832Z,73.11
2018-04-23T14:36:16.949Z,73.69
2018-04-23T14:37:27.073Z,73.96
2018-04-23T14:38:37.181Z,74.15
2018-04-23T14:39:47.022Z,73.66
2018-04-23T14:40:57.114Z,73.27
2018-04-23T14:42:07.250Z,73.27
2018-04-23T14:43:17.349Z,72.88
2018-04-23T14:44:27.658Z,73.21
2018-04-23T14:45:37.517Z,73.27
2018-04-23T14:46:47.626Z,73.17
2018-04-23T14:47:57.814Z,73.17
2018-04-23T14:49:07.934Z,73.27
2018-04-23T14:50:18.036Z,73.17
2018-04-23T14:51:28.144Z,73.66
2018-04-23T14:52:37.989Z,73.07
2018-04-23T14:53:47.828Z,72.97
2018-04-23T14:54:57.735Z,73.07
2018-04-23T14:56:07.851Z,73.07
2018-04-23T14:57:17.700Z,72.97
2018-04-23T14:58:27.806Z,73.13
2018-04-23T14:59:37.900Z,73.62
2018-04-23T15:00:48.013Z,73.33
2018-04-23T15:01:58.185Z,73.72
2018-04-23T15:03:08.303Z,73.33
2018-04-23T15:04:17.873Z,73.33
2018-04-23T15:05:27.998Z,73.33
2018-04-23T15:06:37.583Z,73.52
2018-04-23T15:07:47.768Z,73.33
2018-04-23T15:08:57.876Z,73.49
2018-04-23T15:10:07.982Z,73.59
2018-04-23T15:11:18.102Z,73.88
2018-04-23T15:12:28.200Z,73.98
2018-04-23T15:13:38.340Z,73.59
2018-04-23T15:14:48.440Z,73
2018-04-23T15:15:58.561Z,73.88
2018-04-23T15:17:08.678Z,73.98
2018-04-23T15:18:18.783Z,73.69
2018-04-23T15:19:28.939Z,73.88
2018-04-23T15:20:39.046Z,73.1
2018-04-23T15:21:49.157Z,73.69
2018-04-23T15:22:59.505Z,73.69
2018-04-23T15:24:09.606Z,73.88
2018-04-23T15:25:19.697Z,73.94
2018-04-23T15:26:29.555Z,73.85
2018-04-23T15:27:39.392Z,74.08
2018-04-23T15:28:49.218Z,73.88
2018-04-23T15:29:58.789Z,73.75
2018-04-23T15:31:08.914Z,74.37
2018-04-23T15:32:18.990Z,74.33
2018-04-23T15:33:28.834Z,73.94
2018-04-23T15:34:38.947Z,73.94